Time;durP1;ratioP1;P1;durP2;ratioP2;P2;SDS_P1;SDS_P2;PMS_P1;PMS_P2;Temp;Humidity;BMP_temperature;BMP_pressure;BME280_temperature;BME280_humidity;BME280_pressure;Samples;Min_cycle;Max_cycle;Signal;HPM_P1;HPM_P2
2021/04/21 00:02:25;;;;;;;30.27;25.20;;;7.90;99.90;;;;;;5054142;28;20265;-40
2021/04/21 00:04:55;;;;;;;28.92;23.52;;;7.90;99.90;;;;;;5054280;28;20742;-40
2021/04/21 00:07:24;;;;;;;29.25;25.05;;;7.90;99.90;;;;;;5054515;28;20270;-40
2021/04/21 00:09:53;;;;;;;29.33;25.50;;;7.90;99.90;;;;;;5054109;28;20671;-40
2021/04/21 00:12:21;;;;;;;28.20;24.77;;;7.80;99.90;;;;;;5054007;28;20259;-43
2021/04/21 00:14:51;;;;;;;29.00;25.40;;;7.80;99.90;;;;;;5053974;28;20251;-40
2021/04/21 00:17:21;;;;;;;28.35;25.27;;;7.80;99.90;;;;;;5054040;28;20235;-40
2021/04/21 00:19:50;;;;;;;27.80;23.60;;;7.80;99.90;;;;;;5054121;28;20312;-41
2021/04/21 00:22:18;;;;;;;30.92;25.30;;;7.80;99.90;;;;;;5053846;28;20204;-40
2021/04/21 00:24:48;;;;;;;30.50;26.15;;;7.70;99.90;;;;;;5053998;28;20215;-40
2021/04/21 00:27:16;;;;;;;28.23;24.05;;;7.70;99.90;;;;;;5053817;28;20695;-40
2021/04/21 00:29:46;;;;;;;36.13;28.48;;;7.60;99.90;;;;;;5054170;28;20203;-40
2021/04/21 00:32:14;;;;;;;34.90;27.23;;;7.60;99.90;;;;;;5053482;28;20267;-43
2021/04/21 00:34:45;;;;;;;31.85;26.58;;;7.50;99.90;;;;;;5053904;28;20216;-40
2021/04/21 00:37:12;;;;;;;27.85;24.20;;;7.50;99.90;;;;;;5053630;28;20243;-40
2021/04/21 00:39:42;;;;;;;28.75;24.52;;;7.50;99.90;;;;;;5053622;28;20636;-40
2021/04/21 00:42:20;;;;;;;31.63;24.33;;;7.50;99.90;;;;;;5053608;28;20251;-40
2021/04/21 00:44:54;;;;;;;28.75;22.98;;;7.50;99.90;;;;;;5053583;28;20402;-40
2021/04/21 00:47:28;;;;;;;28.30;23.85;;;7.50;99.90;;;;;;5053549;28;20246;-40
2021/04/21 00:50:01;;;;;;;29.17;24.38;;;7.50;99.90;;;;;;5053202;28;20215;-40
2021/04/21 00:52:46;;;;;;;30.83;24.52;;;7.50;99.90;;;;;;5053348;28;20251;-40
2021/04/21 00:55:19;;;;;;;28.83;24.90;;;7.50;99.90;;;;;;5053555;28;20208;-41
2021/04/21 00:57:57;;;;;;;28.83;25.23;;;7.40;99.90;;;;;;5053213;28;20302;-41
2021/04/21 01:00:29;;;;;;;27.83;23.75;;;7.40;99.90;;;;;;5053349;28;20295;-40
2021/04/21 01:03:03;;;;;;;30.25;23.08;;;7.30;99.90;;;;;;5053141;28;20680;-40
2021/04/21 01:05:35;;;;;;;27.13;22.60;;;7.20;99.90;;;;;;5053183;28;20620;-40
2021/04/21 01:08:05;;;;;;;26.10;22.52;;;7.20;99.90;;;;;;5053221;28;20677;-40
2021/04/21 01:10:38;;;;;;;27.70;23.73;;;7.20;99.90;;;;;;5053136;28;20208;-40
2021/04/21 01:13:05;;;;;;;25.20;22.15;;;7.10;99.90;;;;;;5053018;28;20242;-40
2021/04/21 01:15:33;;;;;;;24.33;21.70;;;7.00;99.90;;;;;;5052933;28;20270;-40
2021/04/21 01:18:03;;;;;;;23.58;20.45;;;7.00;99.90;;;;;;5053129;28;20231;-40
2021/04/21 01:20:40;;;;;;;26.13;21.50;;;7.00;99.90;;;;;;5052859;28;20691;-41
2021/04/21 01:23:35;;;;;;;28.85;22.83;;;7.00;99.90;;;;;;5052801;28;20643;-40
2021/04/21 01:26:16;;;;;;;24.45;21.70;;;7.00;99.90;;;;;;5052929;28;20299;-39
2021/04/21 01:28:50;;;;;;;30.05;24.10;;;6.90;99.90;;;;;;5052636;28;20303;-39
2021/04/21 01:31:19;;;;;;;24.48;21.13;;;6.90;99.90;;;;;;5052445;28;20246;-39
2021/04/21 01:33:48;;;;;;;26.63;21.00;;;6.90;99.90;;;;;;5052598;28;20212;-41
2021/04/21 01:36:19;;;;;;;26.20;21.88;;;6.90;99.90;;;;;;5052503;28;20295;-41
2021/04/21 01:38:47;;;;;;;26.13;21.63;;;6.90;99.90;;;;;;5052677;28;20311;-40
2021/04/21 01:41:19;;;;;;;25.83;21.80;;;6.80;99.90;;;;;;5052522;28;20208;-40
2021/04/21 01:43:50;;;;;;;25.60;21.08;;;6.80;99.90;;;;;;5052383;28;20306;-40
2021/04/21 01:46:19;;;;;;;27.50;21.95;;;6.70;99.90;;;;;;5052419;28;20212;-40
2021/04/21 01:48:48;;;;;;;27.40;21.10;;;6.70;99.90;;;;;;5052251;28;20239;-40
2021/04/21 01:51:25;;;;;;;25.15;21.05;;;6.70;99.90;;;;;;5052353;28;20248;-40
2021/04/21 01:53:56;;;;;;;25.13;20.40;;;6.70;99.90;;;;;;5052229;28;20636;-40
2021/04/21 01:56:29;;;;;;;25.45;21.10;;;6.70;99.90;;;;;;5052114;28;20211;-40
2021/04/21 01:59:03;;;;;;;25.65;20.77;;;6.70;99.90;;;;;;5052140;28;20212;-40
2021/04/21 02:01:40;;;;;;;25.90;19.92;;;6.70;99.90;;;;;;5051936;28;20662;-40
2021/04/21 02:04:16;;;;;;;26.02;20.75;;;6.70;99.90;;;;;;5052058;28;20577;-40
2021/04/21 02:07:04;;;;;;;23.88;19.23;;;6.70;99.90;;;;;;5052124;28;20568;-40
2021/04/21 02:10:10;;;;;;;26.00;20.30;;;6.60;99.90;;;;;;5051804;28;20243;-40
2021/04/21 02:13:13;;;;;;;25.70;20.25;;;6.50;99.90;;;;;;5051913;28;20282;-40
2021/04/21 02:16:10;;;;;;;23.33;19.08;;;6.40;99.90;;;;;;5051877;28;20207;-40
2021/04/21 02:18:49;;;;;;;28.33;22.25;;;6.40;99.90;;;;;;5052034;28;20290;-40
2021/04/21 02:21:22;;;;;;;26.83;20.98;;;6.40;99.90;;;;;;5051851;28;20250;-40
2021/04/21 02:23:56;;;;;;;25.50;20.20;;;6.40;99.90;;;;;;5051719;28;20307;-40
2021/04/21 02:26:30;;;;;;;25.52;21.88;;;6.40;99.90;;;;;;5051886;28;20270;-41
2021/04/21 02:29:02;;;;;;;26.52;22.02;;;6.50;99.90;;;;;;5051898;28;20207;-40
2021/04/21 02:31:44;;;;;;;29.63;21.00;;;6.50;99.90;;;;;;5051551;28;20262;-40
2021/04/21 02:34:19;;;;;;;24.13;20.88;;;6.40;99.90;;;;;;5051747;28;20667;-41
2021/04/21 02:36:53;;;;;;;28.27;21.45;;;6.40;99.90;;;;;;5051836;28;20249;-41
2021/04/21 02:39:25;;;;;;;25.48;20.95;;;6.40;99.90;;;;;;5051924;28;20204;-40
2021/04/21 02:42:00;;;;;;;27.05;23.42;;;6.40;99.90;;;;;;5051782;28;20243;-40
2021/04/21 02:44:43;;;;;;;25.65;22.70;;;6.40;99.90;;;;;;5051702;28;20242;-40
2021/04/21 02:47:22;;;;;;;25.77;21.75;;;6.30;99.90;;;;;;5051603;28;20291;-40
2021/04/21 02:49:56;;;;;;;25.65;21.77;;;6.30;99.90;;;;;;5051741;28;20211;-40
2021/04/21 02:52:36;;;;;;;24.77;20.08;;;6.20;99.90;;;;;;5051699;28;20232;-39
2021/04/21 02:55:15;;;;;;;25.45;21.98;;;6.10;99.90;;;;;;5051529;28;20733;-39
2021/04/21 02:57:50;;;;;;;25.75;21.15;;;6.10;99.90;;;;;;5051866;28;20211;-39
2021/04/21 03:00:27;;;;;;;28.80;22.80;;;6.10;99.90;;;;;;5051471;28;20207;-39
2021/04/21 03:03:06;;;;;;;65.20;41.65;;;6.10;99.90;;;;;;5051472;28;20204;-39
2021/04/21 03:05:36;;;;;;;27.10;23.65;;;6.10;99.90;;;;;;5051485;28;20260;-40
2021/04/21 03:08:09;;;;;;;30.13;24.55;;;6.00;99.90;;;;;;5051615;28;20212;-43
2021/04/21 03:10:43;;;;;;;26.80;21.42;;;6.10;99.90;;;;;;5051625;28;20316;-42
2021/04/21 03:13:14;;;;;;;29.80;23.95;;;6.10;99.90;;;;;;5051563;28;20227;-41
2021/04/21 03:15:46;;;;;;;29.15;23.75;;;6.10;99.90;;;;;;5055223;28;20718;-41
2021/04/21 03:18:18;;;;;;;25.33;21.50;;;6.00;99.90;;;;;;5055133;28;20294;-39
2021/04/21 03:20:51;;;;;;;29.08;23.88;;;6.10;99.90;;;;;;5055202;28;20734;-39
2021/04/21 03:23:20;;;;;;;28.52;21.50;;;6.10;99.90;;;;;;5055289;28;20227;-39
2021/04/21 03:25:51;;;;;;;30.10;24.58;;;6.10;99.90;;;;;;5054912;28;20319;-39
2021/04/21 03:28:21;;;;;;;28.80;24.45;;;6.10;99.90;;;;;;5054908;28;20211;-39
2021/04/21 03:30:51;;;;;;;27.23;23.08;;;6.00;99.90;;;;;;5054637;28;20244;-39
2021/04/21 03:33:24;;;;;;;26.52;22.33;;;5.90;99.90;;;;;;5054603;28;20228;-39
2021/04/21 03:35:52;;;;;;;28.45;22.88;;;5.90;99.90;;;;;;5054660;28;20294;-39
2021/04/21 03:38:21;;;;;;;29.45;25.10;;;5.90;99.90;;;;;;5054656;28;20265;-39
2021/04/21 03:40:48;;;;;;;30.98;25.02;;;5.80;99.90;;;;;;5054545;28;20246;-39
2021/04/21 03:43:16;;;;;;;29.17;24.65;;;5.90;99.90;;;;;;5054426;28;20293;-39
2021/04/21 03:45:47;;;;;;;29.63;24.48;;;5.90;99.90;;;;;;5054347;28;20299;-39
2021/04/21 03:48:15;;;;;;;29.02;24.63;;;5.90;99.90;;;;;;5054518;28;20685;-39
2021/04/21 03:50:44;;;;;;;27.95;22.35;;;6.00;99.90;;;;;;5054587;28;20212;-39
2021/04/21 03:53:13;;;;;;;28.42;24.13;;;6.00;99.90;;;;;;5054427;28;20338;-39
2021/04/21 03:55:42;;;;;;;29.88;24.25;;;6.00;99.90;;;;;;5054304;28;20242;-41
2021/04/21 03:58:11;;;;;;;31.08;24.42;;;6.00;99.90;;;;;;5054508;28;20654;-41
2021/04/21 04:00:40;;;;;;;31.48;26.05;;;6.00;99.90;;;;;;5054373;28;20231;-41
2021/04/21 04:03:10;;;;;;;30.27;25.30;;;6.00;99.90;;;;;;5053994;28;20609;-40
2021/04/21 04:05:44;;;;;;;34.15;24.85;;;5.90;99.90;;;;;;5054061;28;20212;-40
2021/04/21 04:08:15;;;;;;;34.22;26.17;;;5.90;99.90;;;;;;5053766;28;20295;-40
2021/04/21 04:10:48;;;;;;;35.85;26.30;;;5.80;99.90;;;;;;5054161;28;20295;-40
2021/04/21 04:13:16;;;;;;;39.45;25.42;;;5.80;99.90;;;;;;5054054;28;20637;-40
2021/04/21 04:15:44;;;;;;;34.00;25.52;;;5.80;99.90;;;;;;5053935;28;20637;-41
2021/04/21 04:18:13;;;;;;;31.92;25.98;;;5.80;99.90;;;;;;5053693;28;20244;-40
2021/04/21 04:20:41;;;;;;;30.17;25.17;;;5.80;99.90;;;;;;5053501;28;20218;-40
2021/04/21 04:23:12;;;;;;;34.03;25.75;;;5.80;99.90;;;;;;5053871;28;20212;-41
2021/04/21 04:25:44;;;;;;;32.72;24.58;;;5.80;99.90;;;;;;5053361;28;20299;-40
2021/04/21 04:28:11;;;;;;;32.05;24.05;;;5.80;99.90;;;;;;5053847;28;20208;-40
2021/04/21 04:30:39;;;;;;;37.13;29.38;;;5.80;99.90;;;;;;5053198;28;20208;-42
2021/04/21 04:33:07;;;;;;;37.25;29.23;;;5.80;99.90;;;;;;5053434;28;20228;-45
2021/04/21 04:35:35;;;;;;;30.98;26.92;;;5.80;99.90;;;;;;5053638;28;20208;-43
2021/04/21 04:38:03;;;;;;;31.05;24.48;;;5.80;99.90;;;;;;5053535;28;20250;-40
2021/04/21 04:40:32;;;;;;;31.15;25.15;;;5.80;99.90;;;;;;5053665;28;20284;-42
2021/04/21 04:43:00;;;;;;;32.30;24.85;;;5.90;99.90;;;;;;5053654;28;20206;-42
2021/04/21 04:45:29;;;;;;;28.77;24.55;;;5.90;99.90;;;;;;5053545;28;20605;-44
2021/04/21 04:47:58;;;;;;;34.67;24.63;;;5.90;99.90;;;;;;5053379;28;20218;-41
2021/04/21 04:50:26;;;;;;;31.92;24.05;;;5.90;99.90;;;;;;5053289;28;20298;-42
2021/04/21 04:52:55;;;;;;;27.20;23.75;;;5.90;99.90;;;;;;5053525;28;20228;-42
2021/04/21 04:55:24;;;;;;;34.42;27.98;;;5.90;99.90;;;;;;5053410;28;20266;-43
2021/04/21 04:57:54;;;;;;;35.55;28.58;;;5.90;99.90;;;;;;5053373;28;20207;-43
2021/04/21 05:00:24;;;;;;;32.60;24.65;;;5.90;99.90;;;;;;5053208;28;20251;-43
2021/04/21 05:02:54;;;;;;;29.15;24.42;;;5.90;99.90;;;;;;5053120;28;20291;-44
2021/04/21 05:05:21;;;;;;;28.45;23.08;;;6.00;99.90;;;;;;5053222;28;20308;-42
2021/04/21 05:07:55;;;;;;;29.85;25.02;;;6.10;99.90;;;;;;5053028;28;20219;-42
2021/04/21 05:10:26;;;;;;;33.17;24.55;;;6.20;99.90;;;;;;5035855;28;20765;-41
2021/04/21 05:12:57;;;;;;;31.05;24.67;;;6.30;99.90;;;;;;5052748;28;20625;-41
2021/04/21 05:16:10;;;;;;;28.58;23.95;;;6.40;99.90;;;;;;5052973;28;20623;-42
2021/04/21 05:19:10;;;;;;;31.77;24.75;;;6.50;99.90;;;;;;5052631;28;20243;-40
2021/04/21 05:22:20;;;;;;;32.97;24.20;;;6.60;99.90;;;;;;5052793;28;20211;-40
2021/04/21 05:25:32;;;;;;;31.50;24.33;;;6.70;99.90;;;;;;5052867;28;20307;-40
2021/04/21 05:28:38;;;;;;;27.40;22.02;;;6.80;99.90;;;;;;5052852;28;20239;-39
2021/04/21 05:31:42;;;;;;;32.38;22.60;;;6.90;99.90;;;;;;5052222;28;20239;-39
2021/04/21 05:34:58;;;;;;;30.35;23.63;;;7.00;99.90;;;;;;5052784;28;20208;-43
2021/04/21 05:38:01;;;;;;;30.05;23.52;;;7.10;99.90;;;;;;5051667;28;20208;-40
2021/04/21 05:41:15;;;;;;;27.17;21.80;;;7.20;99.90;;;;;;5052512;28;20312;-40
2021/04/21 05:44:21;;;;;;;28.65;22.48;;;7.30;99.90;;;;;;4994304;28;20212;-40
2021/04/21 05:47:25;;;;;;;29.58;21.73;;;7.40;99.90;;;;;;5052070;28;20684;-41
2021/04/21 05:50:31;;;;;;;29.25;21.55;;;7.50;99.90;;;;;;5052069;28;20254;-41
2021/04/21 05:53:30;;;;;;;27.20;21.70;;;7.70;99.90;;;;;;5023226;28;20319;-42
2021/04/21 05:56:26;;;;;;;25.40;20.55;;;7.90;99.90;;;;;;5051388;28;20285;-41
2021/04/21 05:59:23;;;;;;;25.05;21.63;;;7.90;99.90;;;;;;5051970;28;20208;-41
2021/04/21 06:01:53;;;;;;;24.08;20.85;;;8.00;99.90;;;;;;5051889;28;20718;-41
2021/04/21 06:04:23;;;;;;;25.65;20.80;;;8.10;99.90;;;;;;5051962;28;20281;-42
2021/04/21 06:06:49;;;;;;;29.55;22.02;;;8.20;99.90;;;;;;5051932;28;20218;-41
2021/04/21 06:09:17;;;;;;;36.13;22.23;;;8.20;99.90;;;;;;5052012;28;20405;-41
2021/04/21 06:11:44;;;;;;;32.13;22.90;;;8.30;99.90;;;;;;5051704;28;20204;-40
2021/04/21 06:14:11;;;;;;;26.27;22.13;;;8.40;99.90;;;;;;5051676;28;20266;-41
2021/04/21 06:16:38;;;;;;;29.17;21.10;;;8.50;99.90;;;;;;5051557;28;20216;-41
2021/04/21 06:19:08;;;;;;;25.20;20.45;;;8.70;99.90;;;;;;5051606;28;20574;-41
2021/04/21 06:21:38;;;;;;;28.80;22.17;;;8.80;99.90;;;;;;5051518;28;20302;-40
2021/04/21 06:24:18;;;;;;;27.63;21.75;;;8.80;99.90;;;;;;5051625;28;20663;-41
2021/04/21 06:26:45;;;;;;;25.70;21.10;;;9.00;99.90;;;;;;5051813;28;20247;-42
2021/04/21 06:29:12;;;;;;;25.50;20.83;;;9.20;99.90;;;;;;5051762;28;20303;-42
2021/04/21 06:31:43;;;;;;;25.77;21.85;;;9.40;99.90;;;;;;5051205;28;20247;-41
2021/04/21 06:34:12;;;;;;;26.70;21.55;;;9.50;99.90;;;;;;5051799;28;20269;-43
2021/04/21 06:36:43;;;;;;;23.83;21.00;;;9.70;99.90;;;;;;5052082;28;20219;-41
2021/04/21 06:39:11;;;;;;;25.27;20.67;;;9.80;99.90;;;;;;5051737;28;20204;-41
2021/04/21 06:41:38;;;;;;;23.75;20.83;;;9.90;99.90;;;;;;5051595;28;20678;-41
2021/04/21 06:44:06;;;;;;;25.27;21.83;;;10.00;99.90;;;;;;5051630;28;20311;-42
2021/04/21 06:46:33;;;;;;;23.60;20.73;;;10.10;99.90;;;;;;5051592;28;20208;-41
2021/04/21 06:49:02;;;;;;;25.33;20.40;;;10.20;99.90;;;;;;5053746;28;20584;-41
2021/04/21 06:51:32;;;;;;;23.98;19.73;;;10.30;99.90;;;;;;5055806;28;20610;-42
2021/04/21 06:54:00;;;;;;;25.90;20.83;;;10.50;99.80;;;;;;5055713;28;20200;-42
2021/04/21 06:56:30;;;;;;;40.38;35.15;;;10.60;99.60;;;;;;5055610;28;20277;-42
2021/04/21 06:58:58;;;;;;;24.27;21.67;;;10.80;99.40;;;;;;5055686;28;20216;-41
2021/04/21 07:01:30;;;;;;;26.23;20.85;;;10.80;99.20;;;;;;5055531;28;20238;-42
2021/04/21 07:04:14;;;;;;;26.77;23.90;;;10.80;99.20;;;;;;5055707;28;20227;-42
2021/04/21 07:06:48;;;;;;;26.25;21.95;;;10.90;99.10;;;;;;5055517;28;20215;-42
2021/04/21 07:09:17;;;;;;;25.52;20.58;;;11.00;99.10;;;;;;5055220;28;20208;-42
2021/04/21 07:11:46;;;;;;;23.60;20.90;;;11.10;98.90;;;;;;5055294;28;20750;-42
2021/04/21 07:14:18;;;;;;;25.02;21.08;;;11.30;98.70;;;;;;5055272;28;20212;-42
2021/04/21 07:16:46;;;;;;;22.75;20.00;;;11.40;98.40;;;;;;5055125;28;20751;-42
2021/04/21 07:19:15;;;;;;;23.58;20.98;;;11.60;98.10;;;;;;5055172;28;20211;-42
2021/04/21 07:21:43;;;;;;;33.33;23.05;;;11.80;97.90;;;;;;5054900;28;20296;-45
2021/04/21 07:24:12;;;;;;;27.80;21.92;;;11.90;97.70;;;;;;5055073;28;20235;-44
2021/04/21 07:26:42;;;;;;;28.02;22.20;;;11.90;97.50;;;;;;5054983;28;20211;-43
2021/04/21 07:29:16;;;;;;;29.42;26.33;;;11.90;97.60;;;;;;5055135;28;20295;-43
2021/04/21 07:31:43;;;;;;;26.40;23.35;;;11.90;97.50;;;;;;5054622;28;20281;-44
2021/04/21 07:34:28;;;;;;;27.45;21.70;;;12.10;97.40;;;;;;5054638;28;20218;-46
2021/04/21 07:36:55;;;;;;;29.23;24.55;;;12.20;97.10;;;;;;5054863;28;20646;-45
2021/04/21 07:39:30;;;;;;;28.73;24.83;;;12.20;97.10;;;;;;5054968;28;20208;-42
2021/04/21 07:41:58;;;;;;;29.23;21.98;;;12.20;97.10;;;;;;5054834;28;20293;-44
2021/04/21 07:44:27;;;;;;;34.88;29.15;;;12.30;97.00;;;;;;5054583;28;20497;-41
2021/04/21 07:46:54;;;;;;;29.33;24.48;;;12.50;96.70;;;;;;5054603;28;20287;-43
2021/04/21 07:49:29;;;;;;;26.58;23.40;;;12.60;96.50;;;;;;5054641;28;20295;-42
2021/04/21 07:51:57;;;;;;;27.77;23.52;;;12.80;96.20;;;;;;5054529;28;20709;-42
2021/04/21 07:54:29;;;;;;;27.05;24.15;;;12.80;96.10;;;;;;5054664;28;20204;-42
2021/04/21 07:57:17;;;;;;;27.73;24.77;;;12.90;95.90;;;;;;5054290;28;20245;-43
2021/04/21 07:59:45;;;;;;;39.90;35.60;;;13.00;95.80;;;;;;5053469;28;20298;-42
2021/04/21 08:02:15;;;;;;;26.65;21.98;;;13.10;95.80;;;;;;5054293;28;20239;-40
2021/04/21 08:04:48;;;;;;;39.55;35.40;;;13.20;95.50;;;;;;5054183;28;20247;-41
2021/04/21 08:07:29;;;;;;;24.58;21.92;;;13.30;95.40;;;;;;5054202;28;20303;-41
2021/04/21 08:09:56;;;;;;;24.85;22.13;;;13.40;95.00;;;;;;5054032;28;20718;-41
2021/04/21 08:12:27;;;;;;;25.52;22.73;;;13.50;94.80;;;;;;5053972;28;20231;-45
2021/04/21 08:14:59;;;;;;;23.85;21.10;;;13.60;94.60;;;;;;5054223;28;20243;-41
2021/04/21 08:17:26;;;;;;;27.25;23.17;;;13.70;94.30;;;;;;5053641;28;20254;-42
2021/04/21 08:19:58;;;;;;;24.38;21.85;;;13.90;94.00;;;;;;5053805;28;20600;-41
2021/04/21 08:22:27;;;;;;;41.88;34.08;;;14.20;93.50;;;;;;5053986;28;20205;-41
2021/04/21 08:24:55;;;;;;;23.45;20.75;;;14.30;93.10;;;;;;5053944;28;20231;-41
2021/04/21 08:27:24;;;;;;;39.22;33.70;;;14.50;92.50;;;;;;5053057;28;20212;-41
2021/04/21 08:29:52;;;;;;;27.63;23.33;;;14.50;92.20;;;;;;5053854;28;20216;-41
2021/04/21 08:32:22;;;;;;;23.33;20.77;;;14.60;92.00;;;;;;5053343;28;20779;-40
2021/04/21 08:34:50;;;;;;;21.90;19.17;;;14.70;91.80;;;;;;5053733;28;20215;-41
2021/04/21 08:37:18;;;;;;;22.95;20.45;;;14.80;91.30;;;;;;5053804;28;20250;-42
2021/04/21 08:39:46;;;;;;;19.85;17.38;;;15.00;90.90;;;;;;5053782;28;20303;-41
2021/04/21 08:42:14;;;;;;;20.15;17.20;;;15.10;90.40;;;;;;5053534;28;20674;-42
2021/04/21 08:44:42;;;;;;;14.02;12.23;;;15.20;90.00;;;;;;5053652;28;20247;-43
2021/04/21 08:47:13;;;;;;;17.35;15.57;;;15.40;88.60;;;;;;5053367;28;20295;-43
2021/04/21 08:49:41;;;;;;;18.50;16.60;;;15.40;87.40;;;;;;5053426;28;20212;-42
2021/04/21 08:52:10;;;;;;;19.17;17.17;;;15.40;86.80;;;;;;5053228;28;20753;-42
2021/04/21 08:54:40;;;;;;;30.38;27.17;;;15.40;86.40;;;;;;5053302;28;20212;-43
2021/04/21 08:57:08;;;;;;;20.63;18.40;;;15.50;86.20;;;;;;5053412;28;20236;-46
2021/04/21 08:59:35;;;;;;;22.70;20.40;;;15.60;85.70;;;;;;5035379;28;20316;-43
2021/04/21 09:02:02;;;;;;;19.73;16.92;;;15.60;85.20;;;;;;5052929;28;20307;-43
2021/04/21 09:04:30;;;;;;;21.95;19.85;;;15.70;85.10;;;;;;5053044;28;20215;-43
2021/04/21 09:06:57;;;;;;;22.35;18.98;;;15.80;84.40;;;;;;5053274;28;20216;-43
2021/04/21 09:09:25;;;;;;;20.08;17.83;;;16.00;84.00;;;;;;5053049;28;20208;-46
2021/04/21 09:11:54;;;;;;;19.63;16.38;;;16.10;83.40;;;;;;5052911;28;20218;-44
2021/04/21 09:14:21;;;;;;;18.67;16.45;;;16.10;82.60;;;;;;5052743;28;20243;-44
2021/04/21 09:16:48;;;;;;;18.77;16.77;;;16.20;82.40;;;;;;5052722;28;20231;-43
2021/04/21 09:19:16;;;;;;;18.88;17.02;;;16.30;81.70;;;;;;5053034;28;20240;-44
2021/04/21 09:21:43;;;;;;;19.67;17.73;;;16.40;80.50;;;;;;5052797;28;20252;-43
2021/04/21 09:24:12;;;;;;;18.25;16.35;;;16.30;80.40;;;;;;5052614;28;20253;-48
2021/04/21 09:26:39;;;;;;;20.38;17.10;;;16.30;80.50;;;;;;5052667;28;20634;-42
2021/04/21 09:29:06;;;;;;;18.88;16.90;;;16.40;80.10;;;;;;5052620;28;20270;-43
2021/04/21 09:31:34;;;;;;;19.35;17.25;;;16.40;79.80;;;;;;5052455;28;20706;-45
2021/04/21 09:34:10;;;;;;;19.02;17.08;;;16.60;79.40;;;;;;5052746;28;20254;-43
2021/04/21 09:36:40;;;;;;;19.17;17.27;;;16.70;78.50;;;;;;5052451;28;20235;-44
2021/04/21 09:39:18;;;;;;;17.48;15.68;;;16.80;78.40;;;;;;5052553;28;20235;-43
2021/04/21 09:41:49;;;;;;;17.75;16.05;;;16.90;77.40;;;;;;5052920;28;20247;-42
2021/04/21 09:44:19;;;;;;;22.55;18.25;;;16.90;77.00;;;;;;5052513;28;20290;-42
2021/04/21 09:46:47;;;;;;;20.35;16.33;;;16.90;76.70;;;;;;5052449;28;20231;-44
2021/04/21 09:49:34;;;;;;;17.20;14.75;;;17.00;76.20;;;;;;5052145;28;20207;-43
2021/04/21 09:52:22;;;;;;;17.05;15.25;;;17.10;75.00;;;;;;5052095;28;20216;-44
2021/04/21 09:54:51;;;;;;;19.80;17.35;;;17.10;74.90;;;;;;5052021;28;20291;-43
2021/04/21 09:57:24;;;;;;;17.00;15.20;;;17.20;74.50;;;;;;5052321;28;20334;-43
2021/04/21 09:59:57;;;;;;;17.83;16.02;;;17.20;73.90;;;;;;5052169;28;20235;-43
2021/04/21 10:02:35;;;;;;;17.45;15.35;;;17.10;73.10;;;;;;5051989;28;20299;-44
2021/04/21 10:05:25;;;;;;;16.70;15.00;;;17.00;73.30;;;;;;5052264;28;20207;-43
2021/04/21 10:08:25;;;;;;;17.55;15.90;;;17.10;73.00;;;;;;5052092;28;20230;-43
2021/04/21 10:11:03;;;;;;;17.90;16.10;;;17.20;71.70;;;;;;5051777;28;20277;-43
2021/04/21 10:13:41;;;;;;;16.83;15.23;;;17.20;71.70;;;;;;5052195;28;20262;-42
2021/04/21 10:16:09;;;;;;;17.30;15.57;;;17.30;71.20;;;;;;5052131;28;20637;-42
2021/04/21 10:18:37;;;;;;;19.77;16.35;;;17.50;70.70;;;;;;5051857;28;20263;-43
2021/04/21 10:21:11;;;;;;;17.35;15.10;;;17.70;69.70;;;;;;5051566;28;20643;-42
2021/04/21 10:23:39;;;;;;;16.55;14.95;;;18.00;68.80;;;;;;5051305;28;20242;-43
2021/04/21 10:26:09;;;;;;;16.83;15.02;;;18.20;68.10;;;;;;5051782;28;20295;-43
2021/04/21 10:28:38;;;;;;;13.30;12.00;;;18.40;67.00;;;;;;5051578;28;20624;-42
2021/04/21 10:31:07;;;;;;;13.85;12.48;;;18.60;66.70;;;;;;5051490;28;20710;-44
2021/04/21 10:33:35;;;;;;;15.52;12.00;;;18.70;65.00;;;;;;5051363;28;20357;-42
2021/04/21 10:36:04;;;;;;;14.82;13.32;;;18.80;64.20;;;;;;5051511;28;20224;-44
2021/04/21 10:38:32;;;;;;;15.00;13.38;;;18.80;63.60;;;;;;5051360;28;20299;-47
2021/04/21 10:41:25;;;;;;;17.77;13.43;;;18.80;62.30;;;;;;5051424;28;20285;-46
2021/04/21 10:44:08;;;;;;;16.58;14.90;;;18.70;63.60;;;;;;5051759;28;20674;-42
2021/04/21 10:46:57;;;;;;;16.80;15.05;;;18.70;62.30;;;;;;5051554;28;20662;-42
2021/04/21 10:49:42;;;;;;;16.52;14.90;;;18.70;62.20;;;;;;5051686;28;20204;-44
2021/04/21 10:52:14;;;;;;;19.48;16.77;;;18.80;62.60;;;;;;5051470;28;20294;-44
2021/04/21 10:54:42;;;;;;;16.23;14.73;;;18.90;62.10;;;;;;5051426;28;20281;-43
2021/04/21 10:57:33;;;;;;;16.75;15.05;;;18.90;62.00;;;;;;5051347;28;20314;-44
2021/04/21 11:00:13;;;;;;;16.88;14.65;;;19.10;61.00;;;;;;5051385;28;20212;-43
2021/04/21 11:02:59;;;;;;;15.77;14.35;;;19.20;60.90;;;;;;5051178;28;20291;-43
2021/04/21 11:05:51;;;;;;;14.43;13.02;;;19.20;59.10;;;;;;5050882;28;20745;-42
2021/04/21 11:08:21;;;;;;;16.20;14.48;;;19.10;59.50;;;;;;5050955;28;20698;-44
2021/04/21 11:10:52;;;;;;;14.15;12.75;;;18.90;59.70;;;;;;5050994;28;20307;-43
2021/04/21 11:13:47;;;;;;;14.23;12.77;;;18.80;60.10;;;;;;5050991;28;20274;-45
2021/04/21 11:16:39;;;;;;;12.82;11.52;;;18.90;59.90;;;;;;5050946;28;20643;-44
2021/04/21 11:19:27;;;;;;;13.55;12.32;;;18.80;59.80;;;;;;5050934;28;20208;-42
2021/04/21 11:22:14;;;;;;;12.70;11.55;;;18.70;59.50;;;;;;5051101;28;20212;-42
2021/04/21 11:24:41;;;;;;;13.93;12.57;;;18.80;58.90;;;;;;5051007;28;20235;-43
2021/04/21 11:27:43;;;;;;;13.07;11.77;;;19.00;58.70;;;;;;5051053;28;20295;-42
2021/04/21 11:30:52;;;;;;;13.80;12.40;;;19.10;57.60;;;;;;5050828;28;20558;-43
2021/04/21 11:33:56;;;;;;;13.63;12.23;;;19.10;57.30;;;;;;5049627;28;20706;-42
2021/04/21 11:36:49;;;;;;;12.35;11.18;;;18.90;57.30;;;;;;5052754;28;20218;-43
2021/04/21 11:39:31;;;;;;;12.50;11.30;;;18.70;57.80;;;;;;5054729;28;20244;-44
2021/04/21 11:42:16;;;;;;;18.20;10.93;;;18.70;57.90;;;;;;5053547;28;20249;-43
2021/04/21 11:45:06;;;;;;;14.63;11.77;;;19.00;57.10;;;;;;5054476;28;20232;-43
2021/04/21 11:47:39;;;;;;;12.75;11.45;;;19.10;56.70;;;;;;5054417;28;20290;-45
2021/04/21 11:50:19;;;;;;;11.98;10.73;;;19.30;56.50;;;;;;5054430;28;20285;-43
2021/04/21 11:52:52;;;;;;;12.98;11.40;;;19.50;56.00;;;;;;5054225;28;20289;-44
2021/04/21 11:55:22;;;;;;;12.35;11.07;;;19.60;55.50;;;;;;5054564;28;20237;-44
2021/04/21 11:57:54;;;;;;;12.00;10.90;;;19.50;55.80;;;;;;5053830;28;20287;-45
2021/04/21 12:00:27;;;;;;;13.95;12.63;;;19.40;55.90;;;;;;5053764;28;20761;-45
2021/04/21 12:02:55;;;;;;;15.38;12.82;;;19.40;55.80;;;;;;5053765;28;20204;-43
2021/04/21 12:05:27;;;;;;;13.90;12.27;;;19.20;55.70;;;;;;5053680;28;20208;-43
2021/04/21 12:07:56;;;;;;;14.85;12.05;;;19.10;56.00;;;;;;5054011;28;20208;-44
2021/04/21 12:10:26;;;;;;;12.95;11.75;;;19.10;55.80;;;;;;5053745;28;20637;-42
2021/04/21 12:12:53;;;;;;;13.45;11.98;;;19.20;55.50;;;;;;5053439;28;20840;-43
2021/04/21 12:15:20;;;;;;;12.88;11.50;;;19.30;55.30;;;;;;5053646;28;20246;-45
2021/04/21 12:17:52;;;;;;;13.30;11.75;;;19.60;55.00;;;;;;5053610;28;20217;-42
2021/04/21 12:20:24;;;;;;;14.10;12.80;;;19.70;54.40;;;;;;5053656;28;20243;-43
2021/04/21 12:22:52;;;;;;;13.30;11.95;;;19.90;54.20;;;;;;5053872;28;20204;-42
2021/04/21 12:25:24;;;;;;;12.70;11.48;;;20.20;53.70;;;;;;5053484;28;20253;-44
2021/04/21 12:27:56;;;;;;;13.25;11.48;;;20.50;53.00;;;;;;5053280;28;20208;-43
2021/04/21 12:30:28;;;;;;;12.32;11.07;;;20.50;52.80;;;;;;5053515;28;20204;-43
2021/04/21 12:33:10;;;;;;;11.88;10.85;;;20.40;52.80;;;;;;5053274;28;20227;-43
2021/04/21 12:35:38;;;;;;;12.25;11.15;;;20.60;52.70;;;;;;5053089;28;20286;-43
2021/04/21 12:38:05;;;;;;;12.65;11.13;;;20.70;52.30;;;;;;5053078;28;20208;-44
2021/04/21 12:40:34;;;;;;;14.48;12.98;;;20.90;52.30;;;;;;5053034;28;20219;-42
2021/04/21 12:43:12;;;;;;;12.98;11.60;;;21.10;51.90;;;;;;5053012;28;20230;-43
2021/04/21 12:45:41;;;;;;;13.02;11.82;;;21.30;51.30;;;;;;5053015;28;20208;-43
2021/04/21 12:48:25;;;;;;;12.77;11.48;;;21.40;51.20;;;;;;5052595;28;20223;-42
2021/04/21 12:50:55;;;;;;;14.65;13.20;;;21.50;50.30;;;;;;5052834;28;20216;-43
2021/04/21 12:53:24;;;;;;;14.93;13.35;;;21.50;50.50;;;;;;5052566;28;20765;-42
2021/04/21 12:56:05;;;;;;;14.70;13.25;;;21.60;50.60;;;;;;5052753;28;20262;-42
2021/04/21 12:58:37;;;;;;;14.85;13.35;;;21.30;50.30;;;;;;5052917;28;20215;-42
2021/04/21 13:01:13;;;;;;;15.82;13.13;;;21.10;50.90;;;;;;5053001;28;20216;-42
2021/04/21 13:03:59;;;;;;;13.05;11.82;;;20.90;51.20;;;;;;5052621;28;20649;-42
2021/04/21 13:06:41;;;;;;;13.20;12.02;;;20.80;51.30;;;;;;5052962;28;20735;-42
2021/04/21 13:09:10;;;;;;;17.25;15.48;;;21.00;51.00;;;;;;5053019;28;20295;-43